Time;durP1;ratioP1;P1;durP2;ratioP2;P2;SDS_P1;SDS_P2;PMS_P1;PMS_P2;Temp;Humidity;BMP_temperature;BMP_pressure;BME280_temperature;BME280_humidity;BME280_pressure;Samples;Min_cycle;Max_cycle;Signal;HPM_P1;HPM_P2
2023/02/05 00:00:57;;;;;;;23.03;11.60;;;;;;;;;;4952734;28;21033;-76
2023/02/05 00:03:23;;;;;;;20.50;11.20;;;;;;;;;;4954383;28;20521;-76
2023/02/05 00:05:49;;;;;;;17.90;11.43;;;;;;;;;;4941834;28;20461;-76
2023/02/05 00:08:15;;;;;;;25.07;12.40;;;;;;;;;;4961182;28;20499;-76
2023/02/05 00:10:41;;;;;;;21.90;12.20;;;;;;;;;;4958874;28;20536;-75
2023/02/05 00:13:07;;;;;;;20.03;10.33;;;;;;;;;;4954333;28;20446;-76
2023/02/05 00:15:34;;;;;;;20.87;11.70;;;;;;;;;;4959514;28;20431;-76
2023/02/05 00:18:00;;;;;;;20.67;11.43;;;;;;;;;;4944486;29;20473;-76
2023/02/05 00:20:27;;;;;;;30.73;12.57;;;;;;;;;;4964401;28;20451;-76
2023/02/05 00:22:53;;;;;;;34.43;12.00;;;;;;;;;;4964227;28;20477;-76
2023/02/05 00:25:19;;;;;;;29.07;13.00;;;;;;;;;;4945992;28;20953;-76
2023/02/05 00:27:45;;;;;;;21.30;12.60;;;;;;;;;;4953110;28;20429;-76
2023/02/05 00:30:12;;;;;;;24.87;12.63;;;;;;;;;;4948223;28;20485;-75
2023/02/05 00:32:37;;;;;;;22.97;12.17;;;;;;;;;;4964520;28;20456;-75
2023/02/05 00:35:04;;;;;;;29.80;12.20;;;;;;;;;;4945333;28;20493;-75
2023/02/05 00:37:30;;;;;;;21.27;12.23;;;;;;;;;;4927158;29;20443;-76
2023/02/05 00:39:56;;;;;;;21.00;12.13;;;;;;;;;;4962497;28;20433;-76
2023/02/05 00:42:22;;;;;;;20.53;11.83;;;;;;;;;;4932666;28;20769;-76
2023/02/05 00:44:48;;;;;;;25.93;16.27;;;;;;;;;;4952033;28;20508;-75
2023/02/05 00:47:14;;;;;;;18.25;11.45;;;;;;;;;;4947533;28;20441;-75
2023/02/05 00:49:40;;;;;;;20.40;11.60;;;;;;;;;;4929695;29;20336;-75
2023/02/05 00:52:06;;;;;;;24.33;12.47;;;;;;;;;;4929757;28;20464;-75
2023/02/05 00:54:32;;;;;;;25.77;13.10;;;;;;;;;;4947406;28;20472;-76
2023/02/05 00:56:58;;;;;;;17.47;12.70;;;;;;;;;;4948090;28;20788;-76
2023/02/05 00:59:24;;;;;;;22.95;11.68;;;;;;;;;;4935643;28;20438;-76
2023/02/05 01:01:50;;;;;;;26.47;13.00;;;;;;;;;;4947906;28;20202;-76
2023/02/05 01:04:16;;;;;;;28.07;11.70;;;;;;;;;;4935516;28;20826;-76
2023/02/05 01:06:42;;;;;;;20.37;11.00;;;;;;;;;;4923064;29;20473;-76
2023/02/05 01:09:08;;;;;;;22.23;13.50;;;;;;;;;;4951987;28;20445;-76
2023/02/05 01:11:34;;;;;;;20.57;13.50;;;;;;;;;;4943475;28;20541;-76
2023/02/05 01:14:00;;;;;;;29.53;14.00;;;;;;;;;;4946214;29;20505;-74
2023/02/05 01:16:26;;;;;;;23.63;12.23;;;;;;;;;;4939841;28;20479;-75
2023/02/05 01:18:55;;;;;;;28.90;12.47;;;;;;;;;;4920549;29;20450;-75
2023/02/05 01:21:23;;;;;;;21.33;12.80;;;;;;;;;;4946419;28;20454;-76
2023/02/05 01:23:49;;;;;;;31.70;12.30;;;;;;;;;;4939613;29;20446;-75
2023/02/05 01:26:14;;;;;;;17.50;11.70;;;;;;;;;;4940284;28;20455;-75
2023/02/05 01:28:40;;;;;;;26.03;11.13;;;;;;;;;;4951471;28;20522;-75
2023/02/05 01:31:06;;;;;;;29.97;13.30;;;;;;;;;;4939618;28;20455;-76
2023/02/05 01:33:32;;;;;;;29.63;13.77;;;;;;;;;;4931728;29;20473;-76
2023/02/05 01:35:58;;;;;;;22.47;13.27;;;;;;;;;;4948362;28;20453;-76
2023/02/05 01:38:25;;;;;;;29.70;15.33;;;;;;;;;;4958543;28;20437;-75
2023/02/05 01:40:51;;;;;;;28.20;13.67;;;;;;;;;;4948973;28;20449;-75
2023/02/05 01:43:17;;;;;;;25.10;12.57;;;;;;;;;;4955164;28;20500;-75
2023/02/05 01:45:49;;;;;;;34.23;13.50;;;;;;;;;;4939440;28;20455;-75
2023/02/05 01:48:17;;;;;;;28.77;13.30;;;;;;;;;;4947770;28;20430;-75
2023/02/05 01:50:46;;;;;;;25.63;14.20;;;;;;;;;;4944291;28;20489;-76
2023/02/05 01:53:14;;;;;;;31.05;14.93;;;;;;;;;;4936819;29;20462;-76
2023/02/05 01:55:44;;;;;;;22.98;14.27;;;;;;;;;;4931097;28;20195;-74
2023/02/05 01:58:10;;;;;;;26.97;13.40;;;;;;;;;;4952548;28;20225;-75
2023/02/05 02:00:36;;;;;;;28.70;15.30;;;;;;;;;;4942730;28;20810;-75
2023/02/05 02:03:03;;;;;;;35.03;15.53;;;;;;;;;;4937413;29;20935;-76
2023/02/05 02:05:29;;;;;;;30.83;15.57;;;;;;;;;;4961286;28;21008;-75
2023/02/05 02:07:55;;;;;;;30.87;14.30;;;;;;;;;;4946892;28;20422;-76
2023/02/05 02:10:21;;;;;;;29.30;15.93;;;;;;;;;;4942451;28;20818;-75
2023/02/05 02:12:48;;;;;;;27.07;12.90;;;;;;;;;;4945862;28;20437;-75
2023/02/05 02:15:19;;;;;;;32.87;15.60;;;;;;;;;;4953323;28;20528;-76
2023/02/05 02:17:47;;;;;;;22.30;13.80;;;;;;;;;;4937593;28;20832;-75
2023/02/05 02:20:18;;;;;;;21.60;12.67;;;;;;;;;;4964518;28;20453;-76
2023/02/05 02:22:50;;;;;;;25.83;13.47;;;;;;;;;;4951121;28;20853;-77
2023/02/05 02:25:25;;;;;;;21.85;12.40;;;;;;;;;;4956016;28;20539;-76
2023/02/05 02:27:51;;;;;;;30.00;14.70;;;;;;;;;;4957344;28;20684;-75
2023/02/05 02:30:22;;;;;;;36.23;14.40;;;;;;;;;;4954619;28;20772;-75
2023/02/05 02:33:05;;;;;;;31.17;14.35;;;;;;;;;;4944537;29;20542;-75
2023/02/05 02:35:36;;;;;;;31.80;15.43;;;;;;;;;;4929747;29;20234;-76
2023/02/05 02:38:04;;;;;;;25.13;11.97;;;;;;;;;;4960613;28;20426;-75
2023/02/05 02:40:42;;;;;;;25.60;13.73;;;;;;;;;;4945085;28;20451;-76
2023/02/05 02:43:37;;;;;;;26.70;13.80;;;;;;;;;;4931996;29;20991;-76
2023/02/05 02:46:05;;;;;;;36.70;14.20;;;;;;;;;;4912473;29;20551;-75
2023/02/05 02:48:33;;;;;;;27.87;13.63;;;;;;;;;;4958638;28;20493;-76
2023/02/05 02:51:00;;;;;;;21.67;13.45;;;;;;;;;;4952498;28;20501;-76
2023/02/05 02:53:32;;;;;;;31.17;11.73;;;;;;;;;;4957027;28;20202;-76
2023/02/05 02:56:00;;;;;;;27.93;13.33;;;;;;;;;;4942533;28;20500;-76
2023/02/05 02:58:37;;;;;;;28.10;15.67;;;;;;;;;;4960736;28;20481;-76
2023/02/05 03:01:04;;;;;;;31.10;14.90;;;;;;;;;;4931163;29;20453;-75
2023/02/05 03:03:31;;;;;;;26.80;14.80;;;;;;;;;;4961573;28;20946;-75
2023/02/05 03:05:58;;;;;;;29.67;15.23;;;;;;;;;;4951035;28;20860;-76
2023/02/05 03:08:27;;;;;;;54.23;17.50;;;;;;;;;;4957013;28;20430;-76
2023/02/05 03:11:01;;;;;;;32.60;14.07;;;;;;;;;;4939904;28;20978;-76
2023/02/05 03:13:27;;;;;;;33.47;17.17;;;;;;;;;;4958256;28;20463;-75
2023/02/05 03:15:53;;;;;;;34.53;16.67;;;;;;;;;;4934256;29;20474;-76
2023/02/05 03:18:19;;;;;;;32.33;16.00;;;;;;;;;;4959083;28;20431;-76
2023/02/05 03:20:49;;;;;;;24.70;17.10;;;;;;;;;;4957034;28;20507;-76
2023/02/05 03:23:15;;;;;;;32.83;15.30;;;;;;;;;;4956828;28;20438;-76
2023/02/05 03:25:41;;;;;;;23.92;14.35;;;;;;;;;;4951487;28;20446;-76
2023/02/05 03:28:07;;;;;;;29.83;15.73;;;;;;;;;;4952626;28;20205;-76
2023/02/05 03:30:52;;;;;;;32.90;17.17;;;;;;;;;;4963010;28;20441;-76
2023/02/05 03:33:33;;;;;;;39.00;16.57;;;;;;;;;;4936992;28;20740;-76
2023/02/05 03:36:04;;;;;;;34.37;17.10;;;;;;;;;;4939125;28;20528;-76
2023/02/05 03:38:39;;;;;;;30.47;13.70;;;;;;;;;;4941788;29;20426;-75
2023/02/05 03:41:13;;;;;;;28.08;14.75;;;;;;;;;;4942115;28;20451;-75
2023/02/05 03:43:52;;;;;;;32.97;16.60;;;;;;;;;;4938720;29;20190;-76
2023/02/05 03:46:35;;;;;;;31.17;16.73;;;;;;;;;;4954899;28;20536;-76
2023/02/05 03:49:08;;;;;;;30.03;16.20;;;;;;;;;;4943218;29;20521;-76
2023/02/05 03:51:52;;;;;;;35.70;16.00;;;;;;;;;;4926458;29;20452;-76
2023/02/05 03:54:37;;;;;;;31.93;15.53;;;;;;;;;;4953038;28;21006;-76
2023/02/05 03:57:03;;;;;;;37.13;15.43;;;;;;;;;;4934650;29;20429;-76
2023/02/05 03:59:29;;;;;;;37.57;16.60;;;;;;;;;;4954670;28;20438;-76
2023/02/05 04:01:56;;;;;;;30.00;14.75;;;;;;;;;;4958116;28;20446;-76
2023/02/05 04:04:22;;;;;;;33.10;13.93;;;;;;;;;;4929105;28;20208;-76
2023/02/05 04:06:49;;;;;;;25.87;15.53;;;;;;;;;;4935569;29;20451;-75
2023/02/05 04:09:15;;;;;;;34.57;15.97;;;;;;;;;;4954937;28;20788;-76
2023/02/05 04:11:41;;;;;;;31.77;15.23;;;;;;;;;;4955802;28;20442;-75
2023/02/05 04:14:07;;;;;;;29.10;15.90;;;;;;;;;;4955366;28;20461;-76
2023/02/05 04:16:33;;;;;;;29.80;15.47;;;;;;;;;;4944924;28;20438;-76
2023/02/05 04:18:59;;;;;;;26.93;13.20;;;;;;;;;;4956091;28;20430;-76
2023/02/05 04:21:25;;;;;;;28.73;14.53;;;;;;;;;;4923610;29;20451;-76
2023/02/05 04:23:51;;;;;;;25.87;16.03;;;;;;;;;;4956711;28;20846;-76
2023/02/05 04:26:17;;;;;;;29.57;15.37;;;;;;;;;;4935378;28;20446;-76
2023/02/05 04:28:43;;;;;;;35.80;15.63;;;;;;;;;;4954139;28;20492;-75
2023/02/05 04:31:11;;;;;;;30.03;16.23;;;;;;;;;;4948271;28;20826;-76
2023/02/05 04:33:37;;;;;;;33.20;14.43;;;;;;;;;;4950712;28;20481;-76
2023/02/05 04:36:03;;;;;;;41.47;16.57;;;;;;;;;;4948763;28;20826;-76
2023/02/05 04:38:29;;;;;;;42.17;18.02;;;;;;;;;;4958709;28;20493;-76
2023/02/05 04:40:56;;;;;;;36.33;18.03;;;;;;;;;;4961275;28;20202;-76
2023/02/05 04:43:22;;;;;;;39.87;17.43;;;;;;;;;;4947423;28;20961;-78
2023/02/05 04:45:48;;;;;;;24.27;13.93;;;;;;;;;;4949907;28;21090;-76
2023/02/05 04:48:14;;;;;;;23.92;14.45;;;;;;;;;;4947860;28;20430;-76
2023/02/05 04:50:40;;;;;;;25.10;13.70;;;;;;;;;;4947969;28;20206;-77
2023/02/05 04:53:07;;;;;;;32.00;14.43;;;;;;;;;;4928275;29;20453;-76
2023/02/05 04:55:33;;;;;;;32.07;15.17;;;;;;;;;;4951115;28;20449;-77
2023/02/05 04:57:59;;;;;;;17.23;11.30;;;;;;;;;;4940207;29;20448;-77
2023/02/05 05:00:25;;;;;;;20.97;13.10;;;;;;;;;;4961904;28;20919;-76
2023/02/05 05:02:51;;;;;;;29.03;14.20;;;;;;;;;;4944501;28;20574;-77
2023/02/05 05:05:17;;;;;;;26.93;15.73;;;;;;;;;;4941655;28;20541;-76
2023/02/05 05:07:43;;;;;;;26.77;14.47;;;;;;;;;;4947456;28;20474;-76
2023/02/05 05:10:10;;;;;;;23.43;15.03;;;;;;;;;;4944757;28;20450;-77
2023/02/05 05:12:36;;;;;;;29.20;14.90;;;;;;;;;;4929429;29;20426;-77
2023/02/05 05:15:03;;;;;;;23.73;15.03;;;;;;;;;;4926524;29;20948;-76
2023/02/05 05:17:29;;;;;;;28.80;15.30;;;;;;;;;;4935190;29;20826;-76
2023/02/05 05:19:55;;;;;;;23.70;15.27;;;;;;;;;;4954686;28;21051;-76
2023/02/05 05:22:21;;;;;;;28.00;18.07;;;;;;;;;;4934777;29;20440;-76
2023/02/05 05:24:47;;;;;;;35.20;20.20;;;;;;;;;;4935702;28;21190;-77
2023/02/05 05:27:13;;;;;;;43.13;24.13;;;;;;;;;;4936735;29;20449;-78
2023/02/05 05:29:38;;;;;;;38.07;19.93;;;;;;;;;;4949172;28;20465;-76
2023/02/05 05:32:05;;;;;;;37.93;21.50;;;;;;;;;;4955375;28;20926;-77
2023/02/05 05:34:31;;;;;;;39.63;22.47;;;;;;;;;;4948252;28;20477;-77
2023/02/05 05:36:56;;;;;;;39.03;21.93;;;;;;;;;;4946777;29;20806;-76
2023/02/05 05:44:53;;;;;;;48.40;24.83;;;;;;;;;;4945878;28;20465;-77
2023/02/05 05:47:20;;;;;;;46.80;25.33;;;;;;;;;;4943505;28;20934;-77
2023/02/05 05:49:46;;;;;;;57.03;26.92;;;;;;;;;;4954805;28;20446;-77
2023/02/05 05:52:12;;;;;;;54.20;29.00;;;;;;;;;;4948996;28;20198;-76
2023/02/05 05:54:38;;;;;;;58.37;28.30;;;;;;;;;;4958034;28;21468;-76
2023/02/05 05:57:04;;;;;;;58.53;28.03;;;;;;;;;;4939772;29;20890;-76
2023/02/05 05:59:30;;;;;;;55.60;26.90;;;;;;;;;;4950443;28;20426;-76
2023/02/05 06:01:56;;;;;;;57.50;27.83;;;;;;;;;;4969532;28;20416;-77
2023/02/05 06:04:22;;;;;;;58.90;30.17;;;;;;;;;;4946813;28;20440;-77
2023/02/05 06:06:48;;;;;;;66.93;29.87;;;;;;;;;;4949384;28;20442;-76
2023/02/05 06:09:14;;;;;;;63.83;31.27;;;;;;;;;;4964906;28;20434;-76
2023/02/05 06:11:40;;;;;;;60.37;26.50;;;;;;;;;;4960553;28;20470;-76
2023/02/05 06:14:06;;;;;;;59.20;29.00;;;;;;;;;;4968343;28;20457;-76
2023/02/05 06:16:32;;;;;;;67.40;29.80;;;;;;;;;;4929156;28;20523;-76
2023/02/05 06:18:58;;;;;;;65.10;31.03;;;;;;;;;;4949115;29;20438;-76
2023/02/05 06:21:24;;;;;;;69.97;29.67;;;;;;;;;;4942255;28;20486;-76
2023/02/05 06:23:50;;;;;;;74.00;35.00;;;;;;;;;;4951578;28;20497;-77
2023/02/05 06:26:16;;;;;;;75.20;31.60;;;;;;;;;;4956154;28;20454;-76
2023/02/05 06:28:42;;;;;;;73.17;33.30;;;;;;;;;;4956730;28;20442;-75
2023/02/05 06:31:08;;;;;;;76.40;33.60;;;;;;;;;;4950585;28;20805;-75
2023/02/05 06:33:34;;;;;;;73.25;32.38;;;;;;;;;;4952866;28;20839;-76
2023/02/05 06:36:00;;;;;;;65.67;32.30;;;;;;;;;;4960793;28;20199;-77
2023/02/05 06:38:26;;;;;;;63.03;31.10;;;;;;;;;;4956773;28;20478;-77
2023/02/05 06:40:52;;;;;;;70.90;32.07;;;;;;;;;;4934315;29;20464;-76
2023/02/05 06:43:18;;;;;;;62.77;32.93;;;;;;;;;;4953626;28;20810;-76
2023/02/05 06:45:44;;;;;;;69.87;34.30;;;;;;;;;;4952773;28;20484;-77
2023/02/05 06:48:10;;;;;;;85.53;33.27;;;;;;;;;;4960990;28;21084;-76
2023/02/05 06:50:36;;;;;;;74.53;31.67;;;;;;;;;;4954864;28;20438;-78
2023/02/05 06:53:02;;;;;;;71.03;30.70;;;;;;;;;;4955480;28;21142;-77
2023/02/05 06:55:28;;;;;;;71.97;34.63;;;;;;;;;;4963986;28;20480;-76
2023/02/05 06:57:54;;;;;;;64.87;33.07;;;;;;;;;;4937475;28;20434;-77
2023/02/05 07:00:20;;;;;;;89.63;41.63;;;;;;;;;;4958902;28;20540;-77
2023/02/05 07:02:46;;;;;;;72.20;32.43;;;;;;;;;;4935594;28;20882;-77
2023/02/05 07:05:12;;;;;;;59.83;30.70;;;;;;;;;;4942253;28;20461;-77
2023/02/05 07:07:38;;;;;;;65.90;33.63;;;;;;;;;;4954294;28;20508;-77
2023/02/05 07:10:04;;;;;;;64.50;29.00;;;;;;;;;;4946930;28;20807;-76
2023/02/05 07:12:30;;;;;;;71.97;32.53;;;;;;;;;;4949934;28;20446;-76
2023/02/05 07:14:56;;;;;;;90.10;34.27;;;;;;;;;;4944763;28;20472;-77
2023/02/05 07:17:22;;;;;;;62.10;32.23;;;;;;;;;;4955458;28;20446;-77
2023/02/05 07:19:48;;;;;;;64.63;31.23;;;;;;;;;;4951575;28;20517;-76
2023/02/05 07:22:15;;;;;;;63.80;30.80;;;;;;;;;;4950410;28;20537;-76
2023/02/05 07:24:41;;;;;;;60.73;29.40;;;;;;;;;;4932520;29;20441;-77
2023/02/05 07:27:07;;;;;;;74.60;33.33;;;;;;;;;;4950764;28;20493;-76
2023/02/05 07:29:33;;;;;;;65.50;31.43;;;;;;;;;;4948884;28;20518;-77
2023/02/05 07:31:59;;;;;;;61.80;31.23;;;;;;;;;;4952469;28;20532;-77
2023/02/05 07:34:25;;;;;;;66.93;30.63;;;;;;;;;;4949117;28;20466;-76
2023/02/05 07:36:52;;;;;;;59.30;31.17;;;;;;;;;;4947950;28;20461;-75
2023/02/05 07:39:18;;;;;;;67.20;30.73;;;;;;;;;;4953698;28;20557;-76
2023/02/05 07:41:44;;;;;;;56.53;29.80;;;;;;;;;;4947875;28;20491;-76
2023/02/05 07:44:10;;;;;;;56.23;28.30;;;;;;;;;;4957480;28;20515;-77
2023/02/05 07:46:36;;;;;;;47.80;25.13;;;;;;;;;;4945707;28;20456;-77
2023/02/05 07:49:02;;;;;;;49.30;26.80;;;;;;;;;;4948841;29;20422;-76
2023/02/05 07:51:28;;;;;;;48.03;26.80;;;;;;;;;;4956046;28;20453;-77
2023/02/05 07:53:54;;;;;;;45.87;24.10;;;;;;;;;;4964522;28;20462;-77
2023/02/05 07:56:20;;;;;;;41.08;22.35;;;;;;;;;;4956850;28;20788;-77
2023/02/05 07:58:47;;;;;;;38.13;22.80;;;;;;;;;;4949007;29;20175;-77
2023/02/05 08:01:13;;;;;;;44.30;23.43;;;;;;;;;;4945022;28;20985;-77
2023/02/05 08:03:39;;;;;;;49.47;23.73;;;;;;;;;;4947177;29;20985;-76
2023/02/05 08:06:06;;;;;;;44.13;25.20;;;;;;;;;;4945791;28;20430;-76
2023/02/05 08:08:32;;;;;;;40.33;23.17;;;;;;;;;;4942965;28;20747;-77
2023/02/05 08:10:59;;;;;;;39.93;24.23;;;;;;;;;;4925613;28;20926;-77
2023/02/05 08:13:25;;;;;;;36.60;23.23;;;;;;;;;;4929302;29;20449;-76
2023/02/05 08:15:51;;;;;;;39.83;21.27;;;;;;;;;;4928814;28;20421;-76
2023/02/05 08:18:17;;;;;;;30.33;19.80;;;;;;;;;;4949813;28;20403;-76
2023/02/05 08:20:43;;;;;;;31.17;20.00;;;;;;;;;;4955997;28;20431;-77
2023/02/05 08:23:09;;;;;;;31.53;19.93;;;;;;;;;;4945614;28;20194;-77
2023/02/05 08:25:35;;;;;;;34.67;19.43;;;;;;;;;;4929533;29;20445;-78
2023/02/05 08:28:01;;;;;;;33.55;18.42;;;;;;;;;;4944098;28;20442;-77
2023/02/05 08:30:27;;;;;;;29.50;19.50;;;;;;;;;;4948468;28;20564;-75
2023/02/05 08:32:53;;;;;;;24.23;16.63;;;;;;;;;;4945293;28;20462;-77
2023/02/05 08:35:20;;;;;;;22.20;16.30;;;;;;;;;;4950715;28;20474;-76
2023/02/05 08:37:46;;;;;;;17.10;14.23;;;;;;;;;;4956461;28;20554;-77
2023/02/05 08:40:12;;;;;;;8.90;8.00;;;;;;;;;;4955680;28;20438;-77
2023/02/05 08:42:38;;;;;;;8.63;7.93;;;;;;;;;;4946516;28;20511;-78
2023/02/05 08:45:07;;;;;;;7.00;6.47;;;;;;;;;;4952476;28;20733;-77
2023/02/05 08:47:33;;;;;;;4.33;4.10;;;;;;;;;;4940263;28;20446;-76
2023/02/05 08:49:59;;;;;;;9.37;5.10;;;;;;;;;;4949387;28;20441;-76
2023/02/05 08:52:25;;;;;;;3.90;3.70;;;;;;;;;;4946680;28;20453;-76
2023/02/05 08:54:54;;;;;;;2.67;2.58;;;;;;;;;;4948090;28;20476;-78
2023/02/05 08:57:20;;;;;;;2.90;2.70;;;;;;;;;;4947771;28;20225;-75
2023/02/05 08:59:47;;;;;;;2.13;2.13;;;;;;;;;;4955572;28;20269;-77
2023/02/05 09:02:16;;;;;;;2.20;1.70;;;;;;;;;;4937670;28;20470;-77
2023/02/05 09:04:42;;;;;;;2.90;2.23;;;;;;;;;;4954442;28;20577;-76
2023/02/05 09:07:08;;;;;;;1.45;1.40;;;;;;;;;;4953181;28;20525;-77
2023/02/05 09:09:35;;;;;;;1.70;1.70;;;;;;;;;;4948360;28;20191;-76
2023/02/05 09:12:01;;;;;;;1.03;1.03;;;;;;;;;;4928804;29;20452;-77
2023/02/05 09:14:27;;;;;;;1.70;1.00;;;;;;;;;;4947120;28;20469;-75
2023/02/05 09:16:53;;;;;;;0.80;0.70;;;;;;;;;;4947606;28;20833;-76
2023/02/05 09:19:19;;;;;;;1.50;1.50;;;;;;;;;;4948197;28;20505;-76
2023/02/05 09:21:45;;;;;;;1.70;1.10;;;;;;;;;;4944294;28;20453;-77
2023/02/05 09:24:11;;;;;;;1.50;1.50;;;;;;;;;;4934798;29;20529;-77
2023/02/05 09:26:37;;;;;;;3.23;0.80;;;;;;;;;;4947672;28;20599;-77
2023/02/05 09:29:03;;;;;;;1.17;0.70;;;;;;;;;;4949524;28;20430;-75
2023/02/05 09:31:29;;;;;;;0.87;0.87;;;;;;;;;;4938549;28;20960;-76
2023/02/05 09:33:56;;;;;;;1.03;0.93;;;;;;;;;;4951876;28;20517;-76
2023/02/05 09:36:22;;;;;;;0.60;0.60;;;;;;;;;;4954808;28;20493;-77
2023/02/05 09:38:51;;;;;;;1.73;0.87;;;;;;;;;;4934378;29;20434;-76
2023/02/05 09:41:23;;;;;;;0.60;0.60;;;;;;;;;;4960793;28;20519;-78
2023/02/05 09:43:55;;;;;;;2.97;1.00;;;;;;;;;;4933424;28;20430;-77
2023/02/05 09:46:32;;;;;;;2.43;1.00;;;;;;;;;;4954538;28;20454;-76
2023/02/05 09:49:02;;;;;;;1.13;0.50;;;;;;;;;;4947230;29;20422;-78
2023/02/05 09:51:39;;;;;;;0.60;0.60;;;;;;;;;;4957671;28;21023;-77
2023/02/05 09:54:26;;;;;;;4.00;0.93;;;;;;;;;;4944072;29;20477;-76
2023/02/05 09:56:54;;;;;;;1.27;1.17;;;;;;;;;;4951892;28;20444;-76
2023/02/05 09:59:25;;;;;;;4.10;0.80;;;;;;;;;;4950378;28;20475;-75
2023/02/05 10:02:01;;;;;;;0.73;0.73;;;;;;;;;;4959078;28;20449;-75
2023/02/05 10:04:28;;;;;;;1.00;0.90;;;;;;;;;;4947516;28;20434;-76
2023/02/05 10:07:06;;;;;;;0.73;0.70;;;;;;;;;;4952697;28;20445;-76
2023/02/05 10:09:38;;;;;;;1.00;0.80;;;;;;;;;;4924843;29;20501;-76
2023/02/05 10:12:20;;;;;;;1.70;0.87;;;;;;;;;;4949774;28;20833;-75
2023/02/05 10:15:05;;;;;;;1.00;0.83;;;;;;;;;;4944492;28;20458;-77
2023/02/05 10:17:31;;;;;;;3.63;0.90;;;;;;;;;;4929709;29;20707;-75
2023/02/05 10:19:57;;;;;;;4.67;1.70;;;;;;;;;;4954805;28;20434;-79
2023/02/05 10:22:28;;;;;;;2.87;1.03;;;;;;;;;;4952120;28;20462;-76
2023/02/05 10:24:54;;;;;;;4.37;1.40;;;;;;;;;;4956455;28;20468;-77
2023/02/05 10:27:21;;;;;;;1.50;1.23;;;;;;;;;;4958517;28;20442;-76
2023/02/05 10:29:50;;;;;;;2.53;2.27;;;;;;;;;;4955887;28;20533;-76
2023/02/05 10:32:23;;;;;;;3.60;1.33;;;;;;;;;;4953014;28;20530;-78
2023/02/05 10:34:58;;;;;;;3.73;1.73;;;;;;;;;;4945944;29;20569;-76
2023/02/05 10:37:32;;;;;;;2.50;1.40;;;;;;;;;;4952369;28;20445;-77
2023/02/05 10:39:59;;;;;;;2.23;1.30;;;;;;;;;;4955284;28;20430;-77
2023/02/05 10:42:30;;;;;;;8.90;1.95;;;;;;;;;;4955423;28;20461;-77
2023/02/05 10:45:03;;;;;;;3.30;1.27;;;;;;;;;;4955619;28;20641;-78
2023/02/05 10:47:34;;;;;;;14.20;2.87;;;;;;;;;;4948105;28;20454;-77
2023/02/05 10:50:07;;;;;;;2.63;1.73;;;;;;;;;;4945542;28;20476;-76
2023/02/05 10:52:33;;;;;;;1.70;1.60;;;;;;;;;;4953794;28;20504;-78
2023/02/05 10:54:59;;;;;;;4.27;1.60;;;;;;;;;;4947171;28;20597;-78
2023/02/05 10:57:30;;;;;;;10.47;1.93;;;;;;;;;;4956363;28;20470;-77
2023/02/05 10:59:59;;;;;;;4.03;3.73;;;;;;;;;;4938448;28;20816;-77
2023/02/05 11:02:28;;;;;;;4.13;2.20;;;;;;;;;;4950297;28;20414;-76
2023/02/05 11:05:00;;;;;;;2.83;1.90;;;;;;;;;;4951108;28;20454;-77
2023/02/05 11:07:44;;;;;;;5.37;1.43;;;;;;;;;;4948477;29;20454;-77
2023/02/05 11:10:28;;;;;;;5.53;1.67;;;;;;;;;;4944048;28;20442;-77
2023/02/05 11:12:56;;;;;;;3.63;1.60;;;;;;;;;;4947028;29;20402;-77
2023/02/05 11:15:24;;;;;;;3.13;1.37;;;;;;;;;;4934943;28;20990;-77
2023/02/05 11:17:51;;;;;;;1.40;1.30;;;;;;;;;;4947253;29;20936;-77
2023/02/05 11:20:17;;;;;;;3.70;1.40;;;;;;;;;;4951708;28;20548;-77
2023/02/05 11:22:45;;;;;;;2.53;2.27;;;;;;;;;;4948189;29;20421;-77
2023/02/05 11:25:25;;;;;;;1.30;1.25;;;;;;;;;;4948471;28;20856;-78
2023/02/05 11:27:55;;;;;;;4.03;1.40;;;;;;;;;;4941635;29;20541;-77
2023/02/05 11:30:31;;;;;;;6.95;1.58;;;;;;;;;;4948862;28;20202;-77
2023/02/05 11:32:58;;;;;;;4.32;2.55;;;;;;;;;;4924464;29;20221;-77
2023/02/05 11:35:31;;;;;;;6.40;1.35;;;;;;;;;;4945057;28;20210;-77
2023/02/05 11:38:06;;;;;;;4.55;1.20;;;;;;;;;;4957353;28;20654;-79
2023/02/05 11:40:32;;;;;;;6.95;1.55;;;;;;;;;;4940106;28;20214;-76
2023/02/05 11:43:00;;;;;;;4.35;1.75;;;;;;;;;;4945076;28;20273;-77
2023/02/05 11:45:27;;;;;;;1.85;1.20;;;;;;;;;;4946785;28;20310;-79
2023/02/05 11:47:53;;;;;;;4.15;1.60;;;;;;;;;;4952886;28;20222;-77
2023/02/05 11:50:24;;;;;;;8.50;1.60;;;;;;;;;;4946803;28;20199;-77
2023/02/05 11:52:50;;;;;;;3.53;1.70;;;;;;;;;;4950781;28;20277;-78
2023/02/05 11:55:30;;;;;;;2.13;0.70;;;;;;;;;;4946130;28;20217;-76
2023/02/05 11:58:01;;;;;;;1.35;1.35;;;;;;;;;;4927582;29;20186;-77
2023/02/05 12:00:27;;;;;;;5.25;1.40;;;;;;;;;;4950584;28;20193;-77
2023/02/05 12:03:15;;;;;;;3.57;1.90;;;;;;;;;;4950713;28;20535;-77
2023/02/05 12:05:44;;;;;;;2.58;1.10;;;;;;;;;;4948210;28;20449;-78
2023/02/05 12:08:18;;;;;;;4.35;1.73;;;;;;;;;;4932858;29;20201;-79
2023/02/05 12:10:48;;;;;;;5.67;2.50;;;;;;;;;;4946658;28;20227;-77
2023/02/05 12:13:14;;;;;;;2.83;2.63;;;;;;;;;;4949487;28;20945;-77
2023/02/05 12:15:59;;;;;;;4.43;2.83;;;;;;;;;;4955849;28;20225;-77
2023/02/05 12:18:24;;;;;;;5.97;3.23;;;;;;;;;;4953839;28;20426;-76
2023/02/05 12:21:03;;;;;;;3.30;3.00;;;;;;;;;;4949841;28;20434;-80
2023/02/05 12:23:32;;;;;;;6.53;3.22;;;;;;;;;;4945546;28;20492;-77
2023/02/05 12:26:01;;;;;;;12.03;4.20;;;;;;;;;;4952026;28;20202;-77
2023/02/05 12:28:46;;;;;;;2.67;2.45;;;;;;;;;;4949406;28;20426;-77
2023/02/05 12:31:12;;;;;;;3.55;3.25;;;;;;;;;;4950537;28;20210;-77
2023/02/05 12:33:43;;;;;;;3.13;2.93;;;;;;;;;;4948571;28;20727;-78
2023/02/05 12:36:16;;;;;;;2.13;2.13;;;;;;;;;;4945998;28;20501;-77
2023/02/05 12:38:42;;;;;;;2.20;2.20;;;;;;;;;;4945549;28;20961;-76
2023/02/05 12:41:08;;;;;;;3.43;2.30;;;;;;;;;;4963861;28;20348;-77
2023/02/05 12:43:38;;;;;;;4.70;2.00;;;;;;;;;;4947254;28;20559;-77
2023/02/05 12:46:19;;;;;;;3.58;3.25;;;;;;;;;;4949533;28;20441;-76
2023/02/05 12:48:59;;;;;;;3.20;2.90;;;;;;;;;;4950458;28;20190;-77
2023/02/05 12:51:32;;;;;;;3.40;3.17;;;;;;;;;;4937575;29;20564;-76
2023/02/05 12:54:13;;;;;;;3.83;3.53;;;;;;;;;;4947150;28;21008;-77
2023/02/05 12:56:44;;;;;;;3.05;2.88;;;;;;;;;;4937271;29;20212;-76
2023/02/05 12:59:13;;;;;;;3.95;3.75;;;;;;;;;;4926566;28;20210;-77
2023/02/05 13:01:42;;;;;;;7.63;4.18;;;;;;;;;;4937941;29;20171;-76
2023/02/05 13:04:18;;;;;;;5.15;4.68;;;;;;;;;;4940008;28;20570;-77
2023/02/05 13:06:47;;;;;;;4.60;4.40;;;;;;;;;;4940694;28;20174;-76
2023/02/05 13:09:28;;;;;;;8.18;4.97;;;;;;;;;;4942509;28;20434;-77
2023/02/05 13:12:00;;;;;;;7.53;5.13;;;;;;;;;;4947450;28;20650;-77
2023/02/05 13:14:29;;;;;;;8.27;5.00;;;;;;;;;;4941150;29;20222;-77
2023/02/05 13:16:55;;;;;;;5.17;4.97;;;;;;;;;;4937460;29;20450;-77
2023/02/05 13:19:34;;;;;;;11.33;6.53;;;;;;;;;;4940655;28;20450;-78
2023/02/05 13:30:43;;;;;;;5.63;4.00;;;;;;;;;;4945112;28;20213;-79
2023/02/05 13:33:12;;;;;;;8.13;4.60;;;;;;;;;;4945363;29;20450;-78
2023/02/05 13:35:43;;;;;;;3.72;3.53;;;;;;;;;;4943348;28;20470;-78
2023/02/05 13:38:31;;;;;;;21.42;9.73;;;;;;;;;;4953855;28;20269;-78
2023/02/05 13:41:15;;;;;;;5.68;4.00;;;;;;;;;;4949369;29;20184;-76
2023/02/05 13:43:56;;;;;;;4.22;2.28;;;;;;;;;;4943925;28;20485;-76
2023/02/05 13:46:25;;;;;;;3.60;2.60;;;;;;;;;;4943367;29;20183;-76
2023/02/05 13:49:00;;;;;;;3.40;3.15;;;;;;;;;;4946734;28;20451;-78
2023/02/05 13:51:34;;;;;;;5.32;2.13;;;;;;;;;;4944814;29;20203;-76
2023/02/05 13:54:16;;;;;;;2.92;2.72;;;;;;;;;;4940962;28;20246;-76
2023/02/05 13:56:57;;;;;;;3.30;2.23;;;;;;;;;;4945818;29;20190;-77
2023/02/05 13:59:38;;;;;;;5.40;2.90;;;;;;;;;;4950112;28;20441;-77
2023/02/05 14:02:19;;;;;;;3.20;2.90;;;;;;;;;;4946349;28;20472;-78
2023/02/05 14:04:52;;;;;;;5.03;2.63;;;;;;;;;;4949160;28;20228;-77
2023/02/05 14:07:29;;;;;;;2.33;1.73;;;;;;;;;;4947739;28;20273;-76
2023/02/05 14:10:01;;;;;;;2.25;1.77;;;;;;;;;;4933343;29;20210;-79
2023/02/05 14:12:28;;;;;;;2.90;1.50;;;;;;;;;;4954005;28;20588;-78
2023/02/05 14:15:18;;;;;;;3.33;2.10;;;;;;;;;;4954253;28;20811;-77
2023/02/05 14:17:44;;;;;;;3.37;1.67;;;;;;;;;;4905911;29;20430;-75
2023/02/05 14:20:26;;;;;;;6.10;3.00;;;;;;;;;;4950370;28;20465;-78
2023/02/05 14:22:53;;;;;;;2.20;1.83;;;;;;;;;;4951039;28;20430;-78
2023/02/05 14:25:37;;;;;;;4.17;2.30;;;;;;;;;;4934282;29;20442;-77
2023/02/05 14:28:16;;;;;;;1.98;1.60;;;;;;;;;;4957015;28;20541;-77
2023/02/05 14:30:45;;;;;;;7.10;1.50;;;;;;;;;;4948268;29;20171;-77
2023/02/05 14:33:30;;;;;;;1.60;1.52;;;;;;;;;;4951549;28;20470;-77
2023/02/05 14:35:57;;;;;;;3.00;2.03;;;;;;;;;;4943651;28;20608;-76
2023/02/05 14:38:23;;;;;;;4.00;1.27;;;;;;;;;;4934289;28;20854;-76
2023/02/05 14:41:01;;;;;;;4.03;1.70;;;;;;;;;;4949709;28;20418;-76
2023/02/05 14:43:38;;;;;;;5.00;1.63;;;;;;;;;;4949168;28;20481;-77
2023/02/05 14:46:06;;;;;;;1.52;1.52;;;;;;;;;;4957268;28;20525;-78
2023/02/05 14:48:39;;;;;;;8.53;2.30;;;;;;;;;;4947037;28;20420;-80
2023/02/05 14:51:16;;;;;;;6.60;1.87;;;;;;;;;;4936451;29;20485;-77
2023/02/05 14:53:46;;;;;;;4.70;1.67;;;;;;;;;;4942217;28;20452;-79